Terminal Aerodrome Forecast
Issued by NWS Wilmington, NC

Home | Current Version | Previous Version | Text Only | Print | Product List | Glossary On
Versions: 1 2 3 4 5 6 7 8 9 10 11 12 13 14 15 16 17 18 19 20 21 22 23 24 25 26 27
000
FTUS42 KILM 201720
TAFFLO
TAF
KFLO 201720Z 2018/2118 18006KT P6SM BKN035
     FM210100 16004KT P6SM SCT060
     FM210600 VRB03KT 3SM BR BKN006
      TEMPO 2109/2113 1/2SM FG BKN002
     FM211400 19006KT P6SM SCT005=

USA.gov is the U.S. government's official web portal to all federal, state and local government web resources and services.